Time;durP1;ratioP1;P1;durP2;ratioP2;P2;SDS_P1;SDS_P2;PMS_P1;PMS_P2;Temp;Humidity;BMP_temperature;BMP_pressure;BME280_temperature;BME280_humidity;BME280_pressure;Samples;Min_cycle;Max_cycle;Signal;HPM_P1;HPM_P2
2022/09/25 00:00:02;;;;;;;3.92;2.30;;;;;;;10.91;100.00;99390.98;1829519;78;20911;-73
2022/09/25 00:02:30;;;;;;;4.08;2.80;;;;;;;10.91;100.00;99391.55;1809582;78;21428;-74
2022/09/25 00:05:01;;;;;;;4.00;2.58;;;;;;;10.88;100.00;99390.82;1829552;78;21093;-71
2022/09/25 00:07:29;;;;;;;8.15;2.72;;;;;;;10.86;100.00;99393.91;1829666;78;20954;-73
2022/09/25 00:10:01;;;;;;;6.08;3.10;;;;;;;10.85;100.00;99401.13;1829565;78;21428;-71
2022/09/25 00:12:30;;;;;;;4.65;3.00;;;;;;;10.83;100.00;99397.31;1829552;78;20955;-74
2022/09/25 00:14:57;;;;;;;7.58;3.45;;;;;;;10.81;100.00;99403.71;1829547;78;20979;-73
2022/09/25 00:17:26;;;;;;;5.87;3.58;;;;;;;10.78;100.00;99402.41;1829248;78;21526;-72
2022/09/25 00:19:55;;;;;;;4.90;3.65;;;;;;;10.72;100.00;99396.81;1826186;78;20978;-73
2022/09/25 00:22:23;;;;;;;5.42;4.00;;;;;;;10.72;100.00;99395.44;1829565;78;20975;-72
2022/09/25 00:24:51;;;;;;;6.80;3.80;;;;;;;10.71;100.00;99397.38;1829454;78;20868;-73
2022/09/25 00:27:19;;;;;;;7.28;3.83;;;;;;;10.71;100.00;99391.08;1829676;78;20895;-70
2022/09/25 00:29:46;;;;;;;4.83;3.75;;;;;;;10.68;100.00;99392.52;1829460;78;21439;-72
2022/09/25 00:32:14;;;;;;;7.97;3.47;;;;;;;10.66;100.00;99392.02;1829590;78;21436;-67
2022/09/25 00:34:40;;;;;;;4.35;3.17;;;;;;;10.65;100.00;99389.59;1829386;78;21400;-72
2022/09/25 00:37:10;;;;;;;4.25;3.20;;;;;;;10.67;100.00;99396.98;1829532;78;20915;-71
2022/09/25 00:39:40;;;;;;;7.58;4.00;;;;;;;10.68;100.00;99396.66;1825818;78;20958;-73
2022/09/25 00:42:12;;;;;;;4.15;3.10;;;;;;;10.66;100.00;99393.99;1835816;77;21514;-72
2022/09/25 00:45:01;;;;;;;6.60;3.58;;;;;;;10.62;100.00;99395.20;1844185;77;21010;-70
2022/09/25 00:47:59;;;;;;;4.85;3.40;;;;;;;10.62;100.00;99398.52;1843866;77;21387;-73
2022/09/25 00:50:40;;;;;;;5.10;2.95;;;;;;;10.58;100.00;99392.83;1839261;77;20934;-73
2022/09/25 00:53:15;;;;;;;7.47;3.58;;;;;;;10.57;100.00;99391.23;1824880;77;21486;-73
2022/09/25 00:55:42;;;;;;;6.92;2.90;;;;;;;10.57;100.00;99399.48;1810895;79;20974;-71
2022/09/25 00:58:10;;;;;;;3.72;2.83;;;;;;;10.52;100.00;99392.20;1810755;79;21404;-72
2022/09/25 01:00:38;;;;;;;8.13;2.90;;;;;;;10.52;100.00;99395.52;1809277;79;20962;-73
2022/09/25 01:03:08;;;;;;;4.78;3.00;;;;;;;10.52;100.00;99392.76;1810850;79;21546;-72
2022/09/25 01:05:38;;;;;;;6.15;2.75;;;;;;;10.53;100.00;99392.99;1810896;79;21041;-74
2022/09/25 01:08:06;;;;;;;5.60;2.90;;;;;;;10.53;100.00;99394.38;1811069;79;21045;-71
2022/09/25 01:10:36;;;;;;;4.45;3.30;;;;;;;10.51;100.00;99397.45;1810729;79;20998;-74
2022/09/25 01:13:07;;;;;;;5.22;2.75;;;;;;;10.50;100.00;99399.97;1810590;79;21560;-71
2022/09/25 01:16:11;;;;;;;7.08;3.33;;;;;;;10.50;100.00;99399.16;1811109;79;20958;-70
2022/09/25 01:19:14;;;;;;;4.60;2.87;;;;;;;10.46;100.00;99397.02;1811266;79;21371;-72
2022/09/25 01:21:47;;;;;;;3.90;3.05;;;;;;;10.46;100.00;99393.44;1811157;78;20986;-74
2022/09/25 01:24:57;;;;;;;4.97;2.67;;;;;;;10.44;100.00;99394.36;1777125;79;21005;-75
2022/09/25 01:27:53;;;;;;;4.00;2.87;;;;;;;10.43;100.00;99392.71;1810810;79;21534;-73
2022/09/25 01:30:22;;;;;;;5.47;3.12;;;;;;;10.42;100.00;99396.03;1810782;79;20931;-75
2022/09/25 01:33:01;;;;;;;4.87;3.15;;;;;;;10.43;100.00;99394.91;1811037;79;20970;-75
2022/09/25 01:36:01;;;;;;;3.45;2.67;;;;;;;10.42;100.00;99394.65;1810663;79;21585;-74
2022/09/25 01:38:50;;;;;;;14.63;4.25;;;;;;;10.39;100.00;99391.75;1810704;79;20927;-75
2022/09/25 01:41:24;;;;;;;5.40;3.12;;;;;;;10.39;100.00;99391.16;1810809;79;21474;-70
2022/09/25 01:44:01;;;;;;;6.75;3.77;;;;;;;10.37;100.00;99394.02;1810915;79;21017;-73
2022/09/25 01:46:36;;;;;;;6.80;3.70;;;;;;;10.34;100.00;99391.31;1810861;79;20927;-71
2022/09/25 01:49:14;;;;;;;3.85;2.80;;;;;;;10.34;100.00;99389.94;1748967;82;21276;-74
2022/09/25 01:51:44;;;;;;;5.40;3.15;;;;;;;10.33;100.00;99391.09;1723878;82;21418;-70
2022/09/25 01:54:17;;;;;;;6.47;3.65;;;;;;;10.33;100.00;99395.22;1716051;82;20999;-73
2022/09/25 01:57:08;;;;;;;4.87;3.40;;;;;;;10.31;100.00;99398.30;1736748;82;21442;-74
2022/09/25 01:59:50;;;;;;;5.58;3.33;;;;;;;10.32;100.00;99397.16;1741265;82;21052;-73
2022/09/25 02:02:24;;;;;;;6.37;3.80;;;;;;;10.31;100.00;99393.34;1741001;82;21088;-72
2022/09/25 02:05:00;;;;;;;4.35;2.98;;;;;;;10.31;100.00;99398.85;1740786;82;20977;-71
2022/09/25 02:07:37;;;;;;;5.62;3.30;;;;;;;10.29;100.00;99395.59;1740793;82;20917;-74
2022/09/25 02:10:22;;;;;;;4.30;3.15;;;;;;;10.27;100.00;99400.05;1741140;82;20882;-74
2022/09/25 02:12:55;;;;;;;4.75;3.08;;;;;;;10.25;100.00;99401.52;1741019;82;20885;-76
2022/09/25 02:15:29;;;;;;;5.12;3.62;;;;;;;10.21;100.00;99393.91;1741383;82;21105;-72
2022/09/25 02:21:23;;;;;;;4.30;3.12;;;;;;;10.17;100.00;99398.42;1737312;82;20917;-74
2022/09/25 02:24:23;;;;;;;4.53;3.15;;;;;;;10.18;100.00;99395.11;1740971;82;21458;-74
2022/09/25 02:26:59;;;;;;;4.90;3.55;;;;;;;10.17;100.00;99394.84;1740981;82;21414;-73
2022/09/25 02:29:33;;;;;;;6.12;3.90;;;;;;;10.13;100.00;99390.57;1740933;82;20831;-73
2022/09/25 02:32:06;;;;;;;5.05;3.87;;;;;;;10.10;100.00;99392.01;1741008;82;21422;-72
2022/09/25 02:34:36;;;;;;;7.17;3.70;;;;;;;10.07;100.00;99398.72;1741002;82;21062;-73
2022/09/25 02:37:10;;;;;;;9.98;3.90;;;;;;;10.06;100.00;99398.48;1741325;82;20945;-74
2022/09/25 02:39:41;;;;;;;4.20;3.20;;;;;;;10.05;100.00;99392.16;1741096;82;20885;-71
2022/09/25 02:42:55;;;;;;;6.77;4.07;;;;;;;10.04;100.00;99396.05;1739227;82;22077;-72
2022/09/25 02:45:53;;;;;;;10.98;3.65;;;;;;;10.02;100.00;99394.17;1731552;82;21664;-74
2022/09/25 02:48:38;;;;;;;8.73;3.77;;;;;;;10.00;100.00;99393.67;1732322;82;20998;-69
2022/09/25 02:51:30;;;;;;;8.45;3.77;;;;;;;9.98;100.00;99394.55;1732400;82;21466;-68
2022/09/25 02:54:11;;;;;;;6.50;3.90;;;;;;;9.99;100.00;99398.95;1714131;82;21053;-70
2022/09/25 02:56:46;;;;;;;4.72;3.55;;;;;;;10.01;100.00;99400.00;1797073;79;21214;-71
2022/09/25 02:59:22;;;;;;;10.40;4.17;;;;;;;10.00;100.00;99397.02;1796811;79;21522;-70
2022/09/25 03:01:57;;;;;;;7.03;4.03;;;;;;;9.98;100.00;99391.25;1738561;82;21016;-70
2022/09/25 03:04:28;;;;;;;6.85;4.08;;;;;;;9.98;100.00;99395.38;1745402;82;21445;-70
2022/09/25 03:06:57;;;;;;;4.78;3.45;;;;;;;9.98;100.00;99390.42;1742180;82;20985;-71
2022/09/25 03:09:24;;;;;;;6.92;3.33;;;;;;;9.96;100.00;99393.50;1745495;82;21120;-72
2022/09/25 03:11:56;;;;;;;7.83;3.50;;;;;;;9.93;100.00;99388.64;1740576;82;21575;-72
2022/09/25 03:14:23;;;;;;;5.45;3.90;;;;;;;9.94;100.00;99385.33;1745526;82;20885;-70
2022/09/25 03:16:56;;;;;;;10.05;3.67;;;;;;;9.91;100.00;99388.14;1739831;80;20967;-70
2022/09/25 03:19:26;;;;;;;6.62;4.25;;;;;;;9.91;100.00;99389.52;1797010;79;20939;-72
2022/09/25 03:21:58;;;;;;;6.53;3.90;;;;;;;9.89;100.00;99391.80;1793990;79;20969;-73
2022/09/25 03:24:27;;;;;;;7.60;4.15;;;;;;;9.91;100.00;99397.77;1796980;79;20989;-71
2022/09/25 03:26:56;;;;;;;6.20;3.85;;;;;;;9.89;100.00;99400.05;1776924;79;20967;-73
2022/09/25 03:29:22;;;;;;;7.15;4.15;;;;;;;9.90;100.00;99404.97;1796875;79;20943;-70
2022/09/25 03:31:50;;;;;;;4.50;3.60;;;;;;;9.90;100.00;99403.05;1797153;79;20915;-71
2022/09/25 03:34:19;;;;;;;7.37;4.05;;;;;;;9.90;100.00;99407.17;1796995;79;21141;-71
2022/09/25 03:36:48;;;;;;;7.78;3.85;;;;;;;9.88;100.00;99395.66;1796959;79;20995;-70
2022/09/25 03:39:20;;;;;;;5.28;3.98;;;;;;;9.84;100.00;99400.98;1796955;79;20987;-72
2022/09/25 03:41:46;;;;;;;4.40;3.17;;;;;;;9.85;100.00;99405.94;1796096;79;21494;-70
2022/09/25 03:44:13;;;;;;;6.28;3.55;;;;;;;9.82;100.00;99407.39;1796881;79;21388;-71
2022/09/25 03:46:44;;;;;;;5.72;3.75;;;;;;;9.83;100.00;99409.56;1794196;79;21475;-72
2022/09/25 03:49:12;;;;;;;4.37;3.52;;;;;;;9.84;100.00;99409.83;1796817;79;21053;-71
2022/09/25 03:51:40;;;;;;;6.45;3.80;;;;;;;9.80;100.00;99408.27;1796705;79;20867;-71
2022/09/25 03:54:10;;;;;;;6.10;3.72;;;;;;;9.80;100.00;99413.77;1793894;79;21459;-72
2022/09/25 03:56:40;;;;;;;9.30;3.83;;;;;;;9.80;100.00;99417.91;1796995;79;21509;-71
2022/09/25 03:59:08;;;;;;;11.33;3.87;;;;;;;9.80;100.00;99423.41;1796020;79;21519;-74
2022/09/25 04:01:35;;;;;;;6.37;3.90;;;;;;;9.83;100.00;99421.95;1796878;79;20871;-72
2022/09/25 04:04:04;;;;;;;4.22;3.62;;;;;;;9.85;100.00;99426.58;1794633;79;20824;-72
2022/09/25 04:06:35;;;;;;;6.47;4.20;;;;;;;9.88;100.00;99425.14;1797054;79;20879;-72
2022/09/25 04:09:01;;;;;;;5.95;3.92;;;;;;;9.90;100.00;99429.74;1777750;79;21081;-74
2022/09/25 04:11:28;;;;;;;7.65;4.10;;;;;;;9.88;100.00;99438.31;1797021;79;21443;-70
2022/09/25 04:14:02;;;;;;;8.40;5.20;;;;;;;9.90;100.00;99431.94;1797077;79;21333;-72
2022/09/25 04:16:33;;;;;;;7.33;4.00;;;;;;;9.90;100.00;99433.31;1794890;79;20959;-73
2022/09/25 04:19:06;;;;;;;6.37;4.47;;;;;;;9.89;100.00;99424.83;1796957;79;20911;-76
2022/09/25 04:21:32;;;;;;;10.13;4.40;;;;;;;9.90;100.00;99436.06;1778113;79;21069;-75
2022/09/25 04:26:51;;;;;;;8.80;5.22;;;;;;;9.95;100.00;99435.11;1796888;79;20989;-73
2022/09/25 04:29:16;;;;;;;9.10;4.70;;;;;;;9.97;100.00;99430.10;1796311;79;20987;-73
2022/09/25 04:33:44;;;;;;;7.42;5.67;;;;;;;10.00;100.00;99431.42;1776958;79;20975;-75
2022/09/25 04:34:14;;;;;;;8.23;5.95;;;;;;;10.03;100.00;99433.53;1794570;79;20927;-72
2022/09/25 04:36:43;;;;;;;12.70;6.28;;;;;;;10.07;100.00;99433.12;1797102;79;21463;-73
2022/09/25 04:39:18;;;;;;;9.35;5.17;;;;;;;10.10;100.00;99432.48;1796883;79;20962;-72
2022/09/25 04:41:42;;;;;;;7.28;4.42;;;;;;;10.12;100.00;99432.98;1796373;79;20977;-74
2022/09/25 04:44:11;;;;;;;6.12;4.03;;;;;;;10.16;100.00;99438.66;1786320;79;20980;-73
2022/09/25 04:46:42;;;;;;;4.50;3.42;;;;;;;10.17;100.00;99437.52;1779031;80;20919;-72
2022/09/25 04:49:08;;;;;;;6.60;3.70;;;;;;;10.20;100.00;99438.28;1783205;80;21464;-75
2022/09/25 04:51:42;;;;;;;6.58;3.77;;;;;;;10.22;100.00;99449.21;1778368;80;21452;-73
2022/09/25 04:54:10;;;;;;;7.90;4.17;;;;;;;10.25;100.00;99442.83;1783749;79;20910;-75
2022/09/25 04:56:36;;;;;;;6.03;3.98;;;;;;;10.28;100.00;99438.05;1783348;80;20946;-73
2022/09/25 04:59:03;;;;;;;7.92;4.00;;;;;;;10.30;100.00;99442.68;1783580;80;20868;-72
2022/09/25 05:01:31;;;;;;;10.75;3.85;;;;;;;10.32;100.00;99441.21;1783285;80;21550;-75
2022/09/25 05:03:57;;;;;;;9.83;4.47;;;;;;;10.38;100.00;99443.27;1783330;80;20958;-71
2022/09/25 05:06:30;;;;;;;7.40;4.65;;;;;;;10.43;100.00;99444.48;1778935;80;20904;-72
2022/09/25 05:08:58;;;;;;;9.00;4.90;;;;;;;10.46;100.00;99441.09;1783118;80;20909;-71
2022/09/25 05:11:29;;;;;;;5.65;4.03;;;;;;;10.49;100.00;99448.50;1783263;79;21444;-72
2022/09/25 05:13:59;;;;;;;5.35;3.77;;;;;;;10.53;100.00;99451.66;1783252;80;21246;-72
2022/09/25 05:16:29;;;;;;;5.80;4.22;;;;;;;10.55;100.00;99454.09;1783000;80;21027;-74
2022/09/25 05:19:00;;;;;;;5.65;4.20;;;;;;;10.57;100.00;99453.22;1778295;80;20959;-73
2022/09/25 05:21:31;;;;;;;7.12;3.80;;;;;;;10.59;100.00;99455.88;1783313;80;21035;-72
2022/09/25 05:24:04;;;;;;;5.75;4.22;;;;;;;10.64;100.00;99456.31;1778083;80;21077;-74
2022/09/25 05:26:33;;;;;;;6.03;3.60;;;;;;;10.67;100.00;99459.80;1783667;80;21392;-72
2022/09/25 05:29:07;;;;;;;5.85;3.83;;;;;;;10.71;100.00;99457.21;1772568;80;20836;-73
2022/09/25 05:31:37;;;;;;;5.28;3.25;;;;;;;10.75;100.00;99452.66;1755813;80;20904;-73
2022/09/25 05:34:09;;;;;;;7.47;3.92;;;;;;;10.82;100.00;99454.94;1778805;80;21006;-70
2022/09/25 05:39:43;;;;;;;5.00;3.25;;;;;;;10.97;100.00;99458.36;1772772;80;21356;-73
2022/09/25 05:42:14;;;;;;;6.08;3.87;;;;;;;11.03;100.00;99454.30;1751209;80;20872;-71
2022/09/25 05:44:44;;;;;;;5.85;4.10;;;;;;;11.10;100.00;99460.70;1783400;79;21448;-72
2022/09/25 05:47:13;;;;;;;6.65;3.87;;;;;;;11.11;100.00;99455.41;1755884;80;20947;-72
2022/09/25 05:49:47;;;;;;;7.70;3.87;;;;;;;11.15;100.00;99464.11;1755786;80;21065;-74
2022/09/25 05:52:15;;;;;;;5.37;4.08;;;;;;;11.19;100.00;99458.17;1783485;80;21456;-72
2022/09/25 05:54:47;;;;;;;7.10;3.87;;;;;;;11.27;100.00;99463.45;1783323;80;20895;-70
2022/09/25 05:57:13;;;;;;;8.75;3.83;;;;;;;11.32;100.00;99470.19;1783488;80;20911;-72
2022/09/25 05:59:41;;;;;;;9.68;3.83;;;;;;;11.40;100.00;99467.72;1783101;80;21377;-72
2022/09/25 06:02:18;;;;;;;5.62;4.17;;;;;;;11.49;100.00;99469.09;1778938;80;21061;-71
2022/09/25 06:04:44;;;;;;;7.08;3.42;;;;;;;11.54;100.00;99468.36;1783518;80;21583;-71
2022/09/25 06:07:17;;;;;;;5.28;3.52;;;;;;;11.61;100.00;99466.47;1751553;80;20920;-71
2022/09/25 06:09:45;;;;;;;10.43;4.12;;;;;;;11.69;100.00;99467.02;1783535;80;20924;-73
2022/09/25 06:12:25;;;;;;;7.70;4.33;;;;;;;11.75;100.00;99470.42;1756246;80;20958;-72
2022/09/25 06:15:03;;;;;;;7.12;5.00;;;;;;;11.80;100.00;99470.80;1783280;80;20907;-73
2022/09/25 06:17:40;;;;;;;5.20;4.10;;;;;;;11.82;100.00;99474.05;1778563;80;20952;-71
2022/09/25 06:20:11;;;;;;;7.42;3.42;;;;;;;11.90;100.00;99477.35;1783529;80;20915;-71
2022/09/25 06:22:38;;;;;;;5.53;3.35;;;;;;;11.99;100.00;99478.67;1783416;80;20970;-72
2022/09/25 06:25:14;;;;;;;5.72;3.77;;;;;;;12.07;100.00;99477.60;1783392;80;20954;-71
2022/09/25 06:27:45;;;;;;;5.12;3.75;;;;;;;12.14;100.00;99482.08;1779785;80;20971;-70
2022/09/25 06:30:15;;;;;;;5.08;3.40;;;;;;;12.22;100.00;99483.98;1783527;80;21144;-71
2022/09/25 06:32:48;;;;;;;5.60;4.20;;;;;;;12.32;100.00;99481.41;1783362;80;20975;-72
2022/09/25 06:35:30;;;;;;;6.40;4.08;;;;;;;12.41;100.00;99487.72;1783176;80;20995;-72
2022/09/25 06:38:02;;;;;;;8.55;4.30;;;;;;;12.52;100.00;99490.10;1783363;80;20931;-72
2022/09/25 06:40:30;;;;;;;5.65;3.72;;;;;;;12.59;100.00;99486.22;1783328;80;20907;-72
2022/09/25 06:43:03;;;;;;;5.78;4.30;;;;;;;12.66;100.00;99486.51;1783389;79;21460;-72
2022/09/25 06:45:38;;;;;;;5.90;4.17;;;;;;;12.71;100.00;99481.34;1783142;79;20932;-72
2022/09/25 06:48:10;;;;;;;5.80;4.15;;;;;;;12.79;100.00;99483.83;1781785;80;21468;-69
2022/09/25 06:50:43;;;;;;;5.97;3.92;;;;;;;12.89;100.00;99480.67;1783419;80;20970;-70
2022/09/25 06:53:10;;;;;;;7.30;4.30;;;;;;;12.94;100.00;99478.27;1783838;80;20931;-72
2022/09/25 06:55:41;;;;;;;5.70;4.03;;;;;;;13.02;100.00;99477.95;1783246;80;21148;-71
2022/09/25 06:58:10;;;;;;;7.58;4.05;;;;;;;13.12;100.00;99485.03;1783367;80;21071;-70
2022/09/25 07:00:47;;;;;;;6.10;4.12;;;;;;;13.24;100.00;99478.74;1783189;80;20911;-71
2022/09/25 07:06:05;;;;;;;5.58;4.20;;;;;;;13.38;100.00;99475.69;1783444;80;20971;-72
2022/09/25 07:08:31;;;;;;;10.78;5.50;;;;;;;13.46;100.00;99481.72;1783609;80;21415;-70
2022/09/25 07:11:02;;;;;;;6.03;4.45;;;;;;;13.55;100.00;99471.97;1781745;80;21420;-71
2022/09/25 07:13:37;;;;;;;8.25;5.17;;;;;;;13.63;100.00;99473.02;1783392;80;20919;-74
2022/09/25 07:16:14;;;;;;;9.38;4.67;;;;;;;13.69;100.00;99476.39;1777952;80;20915;-71
2022/09/25 07:18:42;;;;;;;8.63;4.55;;;;;;;13.78;100.00;99476.30;1778544;80;20967;-71
2022/09/25 07:21:14;;;;;;;8.55;4.83;;;;;;;13.85;100.00;99473.19;1783396;80;21939;-71
2022/09/25 07:23:47;;;;;;;9.48;4.45;;;;;;;13.96;100.00;99474.13;1779992;80;20895;-71
2022/09/25 07:26:26;;;;;;;5.50;4.10;;;;;;;14.08;100.00;99473.34;1778922;80;20979;-71
2022/09/25 07:28:59;;;;;;;10.50;4.08;;;;;;;14.18;100.00;99472.06;1783323;80;20875;-73
2022/09/25 07:31:30;;;;;;;11.05;4.70;;;;;;;14.29;100.00;99472.42;1774577;80;20983;-72
2022/09/25 07:33:58;;;;;;;7.47;4.35;;;;;;;14.40;100.00;99472.19;1783463;80;21452;-72
2022/09/25 07:36:31;;;;;;;10.68;5.20;;;;;;;14.46;100.00;99469.99;1783263;80;21413;-70
2022/09/25 07:38:59;;;;;;;8.58;4.65;;;;;;;14.53;100.00;99469.41;1783552;79;21416;-71
2022/09/25 07:41:33;;;;;;;5.87;3.67;;;;;;;14.62;100.00;99460.97;1755361;80;20983;-71
2022/09/25 07:44:09;;;;;;;7.90;4.00;;;;;;;14.68;100.00;99464.54;1783434;79;20852;-70
2022/09/25 07:46:43;;;;;;;4.67;3.52;;;;;;;14.75;100.00;99461.17;1777327;80;20935;-72
2022/09/25 07:49:12;;;;;;;5.28;3.65;;;;;;;14.83;100.00;99464.42;1783559;80;20868;-69
2022/09/25 07:51:42;;;;;;;4.75;3.25;;;;;;;14.91;100.00;99463.25;1750231;80;20932;-71
2022/09/25 07:54:13;;;;;;;4.05;3.20;;;;;;;14.96;100.00;99465.78;1783419;80;20872;-73
2022/09/25 07:56:49;;;;;;;4.30;3.22;;;;;;;15.01;100.00;99456.40;1783504;80;20919;-70
2022/09/25 07:59:23;;;;;;;6.65;2.85;;;;;;;15.07;100.00;99464.69;1781698;80;21424;-72
2022/09/25 08:01:53;;;;;;;3.80;2.95;;;;;;;15.18;100.00;99459.46;1783561;80;20959;-70
2022/09/25 08:04:19;;;;;;;7.47;3.87;;;;;;;15.26;100.00;99461.84;1783340;80;20872;-71
2022/09/25 08:06:49;;;;;;;4.65;2.75;;;;;;;15.31;100.00;99461.59;1778366;80;20964;-71
2022/09/25 08:09:18;;;;;;;6.25;3.52;;;;;;;15.36;100.00;99454.97;1783323;80;20924;-73
2022/09/25 08:11:48;;;;;;;5.90;3.35;;;;;;;15.42;100.00;99454.96;1783026;80;21204;-73
2022/09/25 08:14:15;;;;;;;4.40;3.35;;;;;;;15.53;100.00;99456.05;1783526;80;20900;-74
2022/09/25 08:16:53;;;;;;;4.83;3.47;;;;;;;15.63;100.00;99460.27;1783726;80;21503;-71
2022/09/25 08:19:23;;;;;;;5.97;3.55;;;;;;;15.68;100.00;99460.02;1783391;80;21095;-73
2022/09/25 08:22:03;;;;;;;8.23;3.00;;;;;;;15.73;100.00;99460.32;1778759;80;21396;-72
2022/09/25 08:24:36;;;;;;;5.22;3.05;;;;;;;15.77;100.00;99460.42;1783344;80;21096;-71
2022/09/25 08:27:07;;;;;;;4.45;2.58;;;;;;;15.78;100.00;99468.39;1782851;80;20883;-74
2022/09/25 08:29:42;;;;;;;4.33;2.83;;;;;;;15.81;100.00;99466.28;1783306;80;20912;-74
2022/09/25 08:32:11;;;;;;;6.10;2.87;;;;;;;15.88;100.00;99470.44;1783625;80;21384;-74
2022/09/25 08:34:38;;;;;;;3.60;2.52;;;;;;;15.96;100.00;99466.67;1783261;80;20912;-75
2022/09/25 08:37:08;;;;;;;4.17;2.75;;;;;;;16.06;100.00;99466.16;1783154;80;21550;-71
2022/09/25 08:39:39;;;;;;;4.87;2.52;;;;;;;16.12;100.00;99460.34;1783177;80;20986;-72
2022/09/25 08:42:06;;;;;;;5.12;2.70;;;;;;;16.11;100.00;99455.92;1783234;80;20911;-69
2022/09/25 08:44:43;;;;;;;4.35;2.62;;;;;;;16.09;100.00;99451.34;1779503;79;20983;-71
2022/09/25 08:50:22;;;;;;;9.15;2.27;;;;;;;16.24;100.00;99450.48;1796940;79;21136;-71
2022/09/25 08:53:12;;;;;;;4.85;2.60;;;;;;;16.29;100.00;99458.55;1745517;82;21004;-70
2022/09/25 08:58:41;;;;;;;2.92;2.33;;;;;;;16.35;100.00;99452.14;1796943;79;20946;-71
2022/09/25 09:01:19;;;;;;;3.10;2.00;;;;;;;16.45;100.00;99449.38;1778687;79;20983;-72
2022/09/25 09:04:05;;;;;;;4.42;2.67;;;;;;;16.55;100.00;99456.36;1797043;79;21261;-75
2022/09/25 09:06:35;;;;;;;3.00;2.00;;;;;;;16.66;100.00;99450.47;1796825;79;20936;-74
2022/09/25 09:09:23;;;;;;;4.95;2.17;;;;;;;16.78;100.00;99444.55;1797024;79;20939;-72
2022/09/25 09:12:07;;;;;;;3.77;1.37;;;;;;;16.94;100.00;99446.47;1777047;79;20927;-75
2022/09/25 09:14:46;;;;;;;4.47;2.08;;;;;;;17.02;100.00;99426.78;1779735;79;20954;-75
2022/09/25 09:17:24;;;;;;;6.20;1.85;;;;;;;17.11;100.00;99429.95;1793577;79;21166;-73
2022/09/25 09:20:21;;;;;;;6.22;2.02;;;;;;;17.24;100.00;99429.20;1797097;79;21005;-71
2022/09/25 09:22:51;;;;;;;2.02;1.45;;;;;;;17.36;100.00;99430.44;1730476;82;21026;-73
2022/09/25 09:25:38;;;;;;;2.83;1.82;;;;;;;17.46;100.00;99426.23;1716933;82;20893;-71
2022/09/25 09:28:47;;;;;;;3.80;1.37;;;;;;;17.51;100.00;99427.33;1737214;82;21572;-69
2022/09/25 09:31:36;;;;;;;5.55;2.02;;;;;;;17.63;100.00;99426.34;1737651;82;21025;-74
2022/09/25 09:34:47;;;;;;;2.02;1.80;;;;;;;17.76;100.00;99421.39;1736938;82;20988;-71
2022/09/25 09:37:30;;;;;;;2.50;2.30;;;;;;;17.81;100.00;99421.66;1737729;82;21588;-76
2022/09/25 09:40:46;;;;;;;2.10;1.65;;;;;;;17.86;100.00;99419.17;1735051;82;38387;-72
2022/09/25 09:43:32;;;;;;;1.77;1.27;;;;;;;17.89;100.00;99421.20;1734886;82;21473;-72
2022/09/25 09:46:20;;;;;;;5.10;1.67;;;;;;;17.93;100.00;99421.27;1725872;81;21141;-71
2022/09/25 09:49:15;;;;;;;1.40;1.30;;;;;;;17.91;100.00;99418.86;1758765;81;20986;-69
2022/09/25 09:52:18;;;;;;;1.50;1.40;;;;;;;17.98;100.00;99414.77;1730620;81;20929;-74
2022/09/25 09:55:08;;;;;;;3.62;1.30;;;;;;;18.10;100.00;99414.37;1759597;81;20953;-71
2022/09/25 09:57:47;;;;;;;2.52;1.32;;;;;;;18.14;100.00;99418.03;1758543;81;21423;-74
2022/09/25 10:00:21;;;;;;;3.87;1.62;;;;;;;18.21;100.00;99419.55;1755039;81;21118;-76
2022/09/25 10:03:17;;;;;;;4.28;1.25;;;;;;;18.23;100.00;99413.59;1759005;81;20965;-74
2022/09/25 10:05:47;;;;;;;3.33;1.70;;;;;;;18.30;100.00;99410.11;1759232;81;21517;-74
2022/09/25 10:08:17;;;;;;;2.55;1.40;;;;;;;18.36;100.00;99405.22;1759236;81;20925;-75
2022/09/25 10:10:53;;;;;;;2.75;1.80;;;;;;;18.47;100.00;99407.36;1740520;81;21014;-71
2022/09/25 10:13:35;;;;;;;1.97;1.37;;;;;;;18.59;100.00;99411.91;1759462;81;21079;-74
2022/09/25 10:16:10;;;;;;;2.05;1.32;;;;;;;18.66;100.00;99409.81;1757571;81;20926;-72
2022/09/25 10:19:11;;;;;;;2.00;1.52;;;;;;;18.67;100.00;99408.03;1757741;81;20922;-76
2022/09/25 10:22:01;;;;;;;1.55;1.20;;;;;;;18.61;100.00;99410.34;1759569;81;20941;-74
2022/09/25 10:24:51;;;;;;;2.10;1.60;;;;;;;18.56;100.00;99414.06;1759284;81;20966;-73
2022/09/25 10:27:47;;;;;;;3.60;2.00;;;;;;;18.48;100.00;99403.38;1748417;81;20974;-72
2022/09/25 10:30:24;;;;;;;2.95;1.57;;;;;;;18.38;100.00;99396.48;1758038;81;20934;-73
2022/09/25 10:33:07;;;;;;;2.35;1.10;;;;;;;18.19;100.00;99405.17;1759633;81;20862;-71
2022/09/25 10:35:44;;;;;;;2.55;1.27;;;;;;;18.11;100.00;99400.06;1757702;81;21077;-73
2022/09/25 10:38:28;;;;;;;5.47;1.80;;;;;;;18.10;100.00;99393.47;1756064;81;21123;-72
2022/09/25 10:41:14;;;;;;;4.45;1.90;;;;;;;18.17;100.00;99396.98;1759520;81;20919;-70
2022/09/25 10:43:59;;;;;;;2.52;1.22;;;;;;;18.28;100.00;99393.76;1759319;81;20935;-72
2022/09/25 10:52:18;;;;;;;1.65;1.17;;;;;;;18.57;100.00;99391.95;1744086;82;21005;-74
2022/09/25 10:54:47;;;;;;;3.90;1.60;;;;;;;18.47;100.00;99385.05;1746329;82;21120;-74
2022/09/25 10:57:37;;;;;;;4.42;1.55;;;;;;;18.40;100.00;99385.76;1744012;82;21077;-73
2022/09/25 11:00:21;;;;;;;4.12;1.70;;;;;;;18.30;100.00;99386.41;1746354;81;21010;-72
2022/09/25 11:02:57;;;;;;;4.72;1.50;;;;;;;18.20;100.00;99380.28;1745815;82;20986;-75
2022/09/25 11:05:34;;;;;;;2.62;1.52;;;;;;;18.17;100.00;99381.65;1746150;81;20967;-71
2022/09/25 11:08:09;;;;;;;3.80;1.50;;;;;;;18.03;100.00;99378.02;1743554;82;21005;-73
2022/09/25 11:10:46;;;;;;;4.42;2.00;;;;;;;17.93;100.00;99371.89;1711234;82;21009;-74
2022/09/25 11:13:27;;;;;;;1.75;1.52;;;;;;;17.80;100.00;99371.88;1741706;81;20990;-73
2022/09/25 11:16:01;;;;;;;4.42;1.45;;;;;;;17.68;100.00;99373.69;1745665;81;21527;-74
2022/09/25 11:18:50;;;;;;;4.28;1.92;;;;;;;17.63;100.00;99370.64;1744383;81;20999;-72
2022/09/25 11:21:31;;;;;;;2.47;2.10;;;;;;;17.61;100.00;99376.34;1744316;82;21014;-76
2022/09/25 11:24:24;;;;;;;6.10;2.10;;;;;;;17.54;100.00;99379.03;1745327;81;20958;-68
2022/09/25 11:27:20;;;;;;;4.90;2.45;;;;;;;17.58;100.00;99368.16;1746339;81;20913;-74
2022/09/25 11:30:15;;;;;;;1.80;1.60;;;;;;;17.69;100.00;99368.93;1744194;82;20963;-71
2022/09/25 11:32:48;;;;;;;;;;;;;;;17.79;100.00;99361.34;1738183;82;21383;-73
2022/09/25 11:36:01;;;;;;;3.45;1.72;;;;;;;17.96;100.00;99356.42;1734285;82;20099;-72
2022/09/25 11:42:13;;;;;;;3.65;1.75;;;;;;;18.38;100.00;99354.65;1737597;82;20992;-73
2022/09/25 11:45:09;;;;;;;1.50;1.25;;;;;;;18.51;100.00;99352.42;1737248;82;20924;-75
2022/09/25 11:47:49;;;;;;;2.75;1.80;;;;;;;18.57;100.00;99352.90;1734286;82;20921;-74
2022/09/25 11:50:20;;;;;;;1.52;1.37;;;;;;;18.67;100.00;99350.84;1713859;82;21219;-72
2022/09/25 11:53:31;;;;;;;5.47;1.45;;;;;;;18.72;100.00;99347.71;1737518;82;20933;-72
2022/09/25 11:56:18;;;;;;;3.95;1.70;;;;;;;18.77;100.00;99351.33;1713472;82;21025;-74
2022/09/25 11:59:05;;;;;;;3.77;1.67;;;;;;;18.73;100.00;99353.49;1736431;82;20998;-73
2022/09/25 12:01:51;;;;;;;2.33;1.20;;;;;;;18.79;100.00;99352.58;1735901;82;21466;-75
2022/09/25 12:04:44;;;;;;;3.72;1.70;;;;;;;18.82;100.00;99350.99;1715171;82;21012;-73
2022/09/25 12:07:42;;;;;;;1.65;1.30;;;;;;;18.73;100.00;99350.70;1737728;82;21004;-73
2022/09/25 12:10:24;;;;;;;2.30;1.70;;;;;;;18.59;100.00;99357.52;1734460;82;21434;-71
2022/09/25 12:13:17;;;;;;;2.50;1.57;;;;;;;18.44;100.00;99353.73;1734228;82;20950;-75
2022/09/25 12:15:53;;;;;;;3.05;2.15;;;;;;;18.34;100.00;99357.97;1715422;82;20942;-73
2022/09/25 12:18:48;;;;;;;2.67;2.10;;;;;;;18.24;100.00;99353.85;1735018;82;21020;-73
2022/09/25 12:21:35;;;;;;;2.77;1.60;;;;;;;18.11;100.00;99351.86;1737542;82;21076;-72
2022/09/25 12:24:25;;;;;;;5.08;2.17;;;;;;;18.10;100.00;99350.27;1733958;82;22413;-73
2022/09/25 12:27:29;;;;;;;5.12;1.90;;;;;;;18.19;100.00;99353.59;1737477;82;20953;-70
2022/09/25 12:30:24;;;;;;;6.12;2.17;;;;;;;18.29;100.00;99355.53;1737782;82;20846;-75
2022/09/25 12:33:37;;;;;;;4.08;2.22;;;;;;;18.33;100.00;99353.00;1734833;82;21367;-72
2022/09/25 12:36:35;;;;;;;2.40;1.52;;;;;;;18.33;100.00;99357.19;1737018;82;21036;-72